Napas, Russia
Current Conditions -  °F | °C
As of 12:00 PM on Wednesday 22 Oct 2014 (Local Time) from USNN Reporting Station
Scattered Clouds Scattered Clouds  
Wind Chill: -12°   Ceiling: Unl
Heat Index:   Visibility: 6mi
Dew Point: -2°   Wind: 13mph
Humidity: 72%   Direction: 220°SW
Pressure: 29.77"   Gusts: 20mph
Location:  59.85°N, 81.97°E
Report Text: USNN 220500Z 22006G09MPS 9999 SCT011 M15/M19 Q1008 NOSIG RMKQFE751 21410262
Loading
Personal Weather Stations






























Interactive Weather Map
Tropical Storm Tracking
New forecast layout! Learn more

10-Day Weather Forecast

Advertisements
Track Severe Weather on mobile